sensor_id;sensor_type;location;lat;lon;timestamp;temperature;humidity
22271;DHT22;11304;53.520;10.104;2022-11-12T10:32:14;11.40;99.90
22271;DHT22;11304;53.520;10.104;2022-11-12T10:34:40;11.30;99.90
22271;DHT22;11304;53.520;10.104;2022-11-12T10:37:19;11.30;99.90
22271;DHT22;11304;53.520;10.104;2022-11-12T10:39:47;11.30;99.90
22271;DHT22;11304;53.520;10.104;2022-11-12T10:42:15;11.40;99.90
22271;DHT22;11304;53.520;10.104;2022-11-12T10:44:42;11.50;99.90
22271;DHT22;11304;53.520;10.104;2022-11-12T10:47:30;11.60;99.90
22271;DHT22;11304;53.520;10.104;2022-11-12T10:55:21;11.50;99.90
22271;DHT22;11304;53.520;10.104;2022-11-12T11:00:33;11.80;99.90
22271;DHT22;11304;53.520;10.104;2022-11-12T11:03:02;12.00;99.90
22271;DHT22;11304;53.520;10.104;2022-11-12T11:05:34;12.10;99.90
22271;DHT22;11304;53.520;10.104;2022-11-12T11:08:01;12.20;99.90
22271;DHT22;11304;53.520;10.104;2022-11-12T11:10:30;12.20;99.90
22271;DHT22;11304;53.520;10.104;2022-11-12T11:13:15;12.30;99.90
22271;DHT22;11304;53.520;10.104;2022-11-12T11:18:22;12.40;99.90
22271;DHT22;11304;53.520;10.104;2022-11-12T11:21:18;12.60;99.90
22271;DHT22;11304;53.520;10.104;2022-11-12T11:37:26;13.00;99.90
22271;DHT22;11304;53.520;10.104;2022-11-12T11:43:04;13.30;99.90
22271;DHT22;11304;53.520;10.104;2022-11-12T11:48:20;13.50;99.90
22271;DHT22;11304;53.520;10.104;2022-11-12T11:51:01;13.60;99.90
22271;DHT22;11304;53.520;10.104;2022-11-12T11:56:26;13.60;99.90
22271;DHT22;11304;53.520;10.104;2022-11-12T11:58:57;13.80;99.90
22271;DHT22;11304;53.520;10.104;2022-11-12T12:01:25;13.90;99.90
22271;DHT22;11304;53.520;10.104;2022-11-12T12:06:28;13.80;99.90
22271;DHT22;11304;53.520;10.104;2022-11-12T12:11:32;13.70;99.90
22271;DHT22;11304;53.520;10.104;2022-11-12T12:21:28;14.20;99.90
22271;DHT22;11304;53.520;10.104;2022-11-12T12:24:03;14.20;99.90
22271;DHT22;11304;53.520;10.104;2022-11-12T12:29:00;13.90;99.90
22271;DHT22;11304;53.520;10.104;2022-11-12T12:31:35;13.80;99.90
22271;DHT22;11304;53.520;10.104;2022-11-12T12:34:03;13.70;99.90
22271;DHT22;11304;53.520;10.104;2022-11-12T12:36:35;13.50;99.90
22271;DHT22;11304;53.520;10.104;2022-11-12T12:44:17;13.30;99.90
22271;DHT22;11304;53.520;10.104;2022-11-12T12:46:44;13.30;99.90
22271;DHT22;11304;53.520;10.104;2022-11-12T12:49:16;13.20;99.90
22271;DHT22;11304;53.520;10.104;2022-11-12T12:51:43;13.10;99.90
22271;DHT22;11304;53.520;10.104;2022-11-12T12:56:53;13.00;99.90
22271;DHT22;11304;53.520;10.104;2022-11-12T12:59:20;12.90;99.90
22271;DHT22;11304;53.520;10.104;2022-11-12T13:01:51;12.90;99.90
22271;DHT22;11304;53.520;10.104;2022-11-12T13:04:47;12.80;99.90
22271;DHT22;11304;53.520;10.104;2022-11-12T13:07:04;12.70;99.90
22271;DHT22;11304;53.520;10.104;2022-11-12T13:09:29;12.50;99.90
22271;DHT22;11304;53.520;10.104;2022-11-12T13:11:57;12.40;99.90
22271;DHT22;11304;53.520;10.104;2022-11-12T13:19:46;12.30;99.90
22271;DHT22;11304;53.520;10.104;2022-11-12T13:22:52;12.30;99.90
22271;DHT22;11304;53.520;10.104;2022-11-12T13:46:36;12.30;99.90
22271;DHT22;11304;53.520;10.104;2022-11-12T13:48:58;12.20;99.90
22271;DHT22;11304;53.520;10.104;2022-11-12T13:51:41;12.20;99.90
22271;DHT22;11304;53.520;10.104;2022-11-12T13:56:54;12.30;99.90
22271;DHT22;11304;53.520;10.104;2022-11-12T13:59:22;12.20;99.90
22271;DHT22;11304;53.520;10.104;2022-11-12T14:01:49;12.20;99.90
22271;DHT22;11304;53.520;10.104;2022-11-12T14:04:20;12.30;99.90
22271;DHT22;11304;53.520;10.104;2022-11-12T14:06:53;12.30;99.90
22271;DHT22;11304;53.520;10.104;2022-11-12T14:09:33;12.40;99.90
22271;DHT22;11304;53.520;10.104;2022-11-12T14:17:55;12.10;99.90
22271;DHT22;11304;53.520;10.104;2022-11-12T14:20:32;12.10;99.90
22271;DHT22;11304;53.520;10.104;2022-11-12T14:23:19;11.90;99.90
22271;DHT22;11304;53.520;10.104;2022-11-12T14:25:50;11.90;99.90
22271;DHT22;11304;53.520;10.104;2022-11-12T14:28:36;12.00;99.90
22271;DHT22;11304;53.520;10.104;2022-11-12T14:31:03;11.90;99.90
22271;DHT22;11304;53.520;10.104;2022-11-12T14:33:31;11.90;99.90
22271;DHT22;11304;53.520;10.104;2022-11-12T14:36:03;11.80;99.90
22271;DHT22;11304;53.520;10.104;2022-11-12T14:38:32;11.70;99.90
22271;DHT22;11304;53.520;10.104;2022-11-12T14:41:20;11.60;99.90
22271;DHT22;11304;53.520;10.104;2022-11-12T14:43:52;11.50;99.90
22271;DHT22;11304;53.520;10.104;2022-11-12T14:48:56;11.30;99.90
22271;DHT22;11304;53.520;10.104;2022-11-12T14:51:25;11.20;99.90
22271;DHT22;11304;53.520;10.104;2022-11-12T14:53:53;11.10;99.90
22271;DHT22;11304;53.520;10.104;2022-11-12T14:56:34;11.00;99.90
22271;DHT22;11304;53.520;10.104;2022-11-12T14:59:01;10.90;99.90
22271;DHT22;11304;53.520;10.104;2022-11-12T15:01:29;10.80;99.90
22271;DHT22;11304;53.520;10.104;2022-11-12T15:06:32;10.60;99.90
22271;DHT22;11304;53.520;10.104;2022-11-12T15:08:58;10.60;99.90
22271;DHT22;11304;53.520;10.104;2022-11-12T15:11:33;10.40;99.90
22271;DHT22;11304;53.520;10.104;2022-11-12T15:14:01;10.30;99.90
22271;DHT22;11304;53.520;10.104;2022-11-12T15:16:32;10.10;99.90
22271;DHT22;11304;53.520;10.104;2022-11-12T15:21:27;9.80;99.90
22271;DHT22;11304;53.520;10.104;2022-11-12T15:24:32;9.70;99.90
22271;DHT22;11304;53.520;10.104;2022-11-12T15:26:52;9.70;99.90
22271;DHT22;11304;53.520;10.104;2022-11-12T15:29:30;9.50;99.90
22271;DHT22;11304;53.520;10.104;2022-11-12T15:32:01;9.20;99.90
22271;DHT22;11304;53.520;10.104;2022-11-12T15:34:31;9.10;99.90
22271;DHT22;11304;53.520;10.104;2022-11-12T15:37:27;8.90;99.90
22271;DHT22;11304;53.520;10.104;2022-11-12T15:39:58;8.80;99.90
22271;DHT22;11304;53.520;10.104;2022-11-12T15:42:40;8.70;99.90
22271;DHT22;11304;53.520;10.104;2022-11-12T15:47:37;8.50;99.90
22271;DHT22;11304;53.520;10.104;2022-11-12T15:50:17;8.40;99.90
22271;DHT22;11304;53.520;10.104;2022-11-12T15:52:43;8.30;99.90
22271;DHT22;11304;53.520;10.104;2022-11-12T15:55:11;8.20;99.90
22271;DHT22;11304;53.520;10.104;2022-11-12T15:57:49;8.10;99.90
22271;DHT22;11304;53.520;10.104;2022-11-12T16:00:17;8.00;99.90
22271;DHT22;11304;53.520;10.104;2022-11-12T16:02:43;7.90;99.90
22271;DHT22;11304;53.520;10.104;2022-11-12T16:05:14;7.80;99.90
22271;DHT22;11304;53.520;10.104;2022-11-12T16:07:40;7.60;99.90
22271;DHT22;11304;53.520;10.104;2022-11-12T16:10:06;7.50;99.90
22271;DHT22;11304;53.520;10.104;2022-11-12T16:12:37;7.40;99.90
22271;DHT22;11304;53.520;10.104;2022-11-12T16:15:02;7.30;99.90
22271;DHT22;11304;53.520;10.104;2022-11-12T16:17:30;7.20;99.90
22271;DHT22;11304;53.520;10.104;2022-11-12T16:19:55;7.10;99.90
22271;DHT22;11304;53.520;10.104;2022-11-12T16:22:21;7.10;99.90
22271;DHT22;11304;53.520;10.104;2022-11-12T16:24:47;7.10;99.90
22271;DHT22;11304;53.520;10.104;2022-11-12T16:27:13;7.10;99.90
22271;DHT22;11304;53.520;10.104;2022-11-12T16:29:40;7.10;99.90
22271;DHT22;11304;53.520;10.104;2022-11-12T16:32:10;7.20;99.90
22271;DHT22;11304;53.520;10.104;2022-11-12T16:34:36;7.10;99.90
22271;DHT22;11304;53.520;10.104;2022-11-12T16:37:01;6.90;99.90
22271;DHT22;11304;53.520;10.104;2022-11-12T16:39:27;6.90;99.90
22271;DHT22;11304;53.520;10.104;2022-11-12T16:41:53;6.90;99.90
22271;DHT22;11304;53.520;10.104;2022-11-12T16:44:19;6.90;99.90
22271;DHT22;11304;53.520;10.104;2022-11-12T16:46:44;6.80;99.90
22271;DHT22;11304;53.520;10.104;2022-11-12T16:49:11;6.70;99.90
22271;DHT22;11304;53.520;10.104;2022-11-12T16:51:38;6.50;99.90
22271;DHT22;11304;53.520;10.104;2022-11-12T16:54:04;6.40;99.90
22271;DHT22;11304;53.520;10.104;2022-11-12T16:56:30;6.30;99.90
22271;DHT22;11304;53.520;10.104;2022-11-12T16:58:56;6.20;99.90
22271;DHT22;11304;53.520;10.104;2022-11-12T17:01:24;6.10;99.90
22271;DHT22;11304;53.520;10.104;2022-11-12T17:03:52;6.10;99.90
22271;DHT22;11304;53.520;10.104;2022-11-12T17:06:18;6.10;99.90
22271;DHT22;11304;53.520;10.104;2022-11-12T17:08:44;6.00;99.90
22271;DHT22;11304;53.520;10.104;2022-11-12T17:11:13;6.00;99.90
22271;DHT22;11304;53.520;10.104;2022-11-12T17:13:39;6.00;99.90
22271;DHT22;11304;53.520;10.104;2022-11-12T17:16:06;5.90;99.90
22271;DHT22;11304;53.520;10.104;2022-11-12T17:18:32;5.80;99.90
22271;DHT22;11304;53.520;10.104;2022-11-12T17:21:08;5.70;99.90
22271;DHT22;11304;53.520;10.104;2022-11-12T17:23:34;5.70;99.90
22271;DHT22;11304;53.520;10.104;2022-11-12T17:26:01;5.60;99.90
22271;DHT22;11304;53.520;10.104;2022-11-12T17:28:29;5.60;99.90
22271;DHT22;11304;53.520;10.104;2022-11-12T17:31:06;5.60;99.90
22271;DHT22;11304;53.520;10.104;2022-11-12T17:33:35;5.60;99.90
22271;DHT22;11304;53.520;10.104;2022-11-12T17:36:03;5.50;99.90
22271;DHT22;11304;53.520;10.104;2022-11-12T17:38:29;5.40;99.90
22271;DHT22;11304;53.520;10.104;2022-11-12T17:40:56;5.30;99.90
22271;DHT22;11304;53.520;10.104;2022-11-12T17:43:22;5.30;99.90
22271;DHT22;11304;53.520;10.104;2022-11-12T17:45:49;5.30;99.90
22271;DHT22;11304;53.520;10.104;2022-11-12T17:48:15;5.30;99.90
22271;DHT22;11304;53.520;10.104;2022-11-12T17:50:41;5.50;99.90
22271;DHT22;11304;53.520;10.104;2022-11-12T17:53:06;5.60;99.90
22271;DHT22;11304;53.520;10.104;2022-11-12T17:55:32;5.50;99.90
22271;DHT22;11304;53.520;10.104;2022-11-12T17:57:58;5.30;99.90
22271;DHT22;11304;53.520;10.104;2022-11-12T18:00:24;5.20;99.90
22271;DHT22;11304;53.520;10.104;2022-11-12T18:02:49;5.10;99.90
22271;DHT22;11304;53.520;10.104;2022-11-12T18:05:16;5.00;99.90
22271;DHT22;11304;53.520;10.104;2022-11-12T18:07:42;5.00;99.90
22271;DHT22;11304;53.520;10.104;2022-11-12T18:10:07;4.90;99.90
22271;DHT22;11304;53.520;10.104;2022-11-12T18:12:33;4.90;99.90
22271;DHT22;11304;53.520;10.104;2022-11-12T18:14:59;4.90;99.90
22271;DHT22;11304;53.520;10.104;2022-11-12T18:17:25;4.80;99.90
22271;DHT22;11304;53.520;10.104;2022-11-12T18:19:50;4.80;99.90
22271;DHT22;11304;53.520;10.104;2022-11-12T18:22:16;4.70;99.90
22271;DHT22;11304;53.520;10.104;2022-11-12T18:24:43;4.60;99.90
22271;DHT22;11304;53.520;10.104;2022-11-12T18:27:09;4.60;99.90
22271;DHT22;11304;53.520;10.104;2022-11-12T18:29:35;4.50;99.90
22271;DHT22;11304;53.520;10.104;2022-11-12T18:32:00;4.40;99.90
22271;DHT22;11304;53.520;10.104;2022-11-12T18:34:26;4.40;99.90
22271;DHT22;11304;53.520;10.104;2022-11-12T18:36:52;4.40;99.90
22271;DHT22;11304;53.520;10.104;2022-11-12T18:39:18;4.50;99.90
22271;DHT22;11304;53.520;10.104;2022-11-12T18:41:43;4.50;99.90
22271;DHT22;11304;53.520;10.104;2022-11-12T18:44:09;4.60;99.90
22271;DHT22;11304;53.520;10.104;2022-11-12T18:46:35;4.60;99.90
22271;DHT22;11304;53.520;10.104;2022-11-12T18:49:00;4.50;99.90
22271;DHT22;11304;53.520;10.104;2022-11-12T18:51:26;4.40;99.90
22271;DHT22;11304;53.520;10.104;2022-11-12T18:53:52;4.40;99.90
22271;DHT22;11304;53.520;10.104;2022-11-12T18:56:19;4.30;99.90
22271;DHT22;11304;53.520;10.104;2022-11-12T18:58:46;4.30;99.90
22271;DHT22;11304;53.520;10.104;2022-11-12T19:01:14;4.30;99.90
22271;DHT22;11304;53.520;10.104;2022-11-12T19:03:40;4.20;99.90
22271;DHT22;11304;53.520;10.104;2022-11-12T19:06:07;4.20;99.90
22271;DHT22;11304;53.520;10.104;2022-11-12T19:08:33;4.20;99.90
22271;DHT22;11304;53.520;10.104;2022-11-12T19:11:05;4.10;99.90
22271;DHT22;11304;53.520;10.104;2022-11-12T19:13:31;4.10;99.90
22271;DHT22;11304;53.520;10.104;2022-11-12T19:16:11;4.00;99.90
22271;DHT22;11304;53.520;10.104;2022-11-12T19:18:39;4.10;99.90
22271;DHT22;11304;53.520;10.104;2022-11-12T19:21:10;4.30;99.90
22271;DHT22;11304;53.520;10.104;2022-11-12T19:23:37;4.20;99.90
22271;DHT22;11304;53.520;10.104;2022-11-12T19:26:05;4.30;99.90
22271;DHT22;11304;53.520;10.104;2022-11-12T19:28:31;4.40;99.90
22271;DHT22;11304;53.520;10.104;2022-11-12T19:31:06;4.50;99.90
22271;DHT22;11304;53.520;10.104;2022-11-12T19:33:32;4.60;99.90
22271;DHT22;11304;53.520;10.104;2022-11-12T19:36:00;4.80;99.90
22271;DHT22;11304;53.520;10.104;2022-11-12T19:38:28;4.90;99.90
22271;DHT22;11304;53.520;10.104;2022-11-12T19:40:54;5.10;99.90
22271;DHT22;11304;53.520;10.104;2022-11-12T19:43:20;5.20;99.90
22271;DHT22;11304;53.520;10.104;2022-11-12T19:45:46;5.20;99.90
22271;DHT22;11304;53.520;10.104;2022-11-12T19:48:12;5.30;99.90
22271;DHT22;11304;53.520;10.104;2022-11-12T19:50:37;5.40;99.90
22271;DHT22;11304;53.520;10.104;2022-11-12T19:53:03;5.60;99.90
22271;DHT22;11304;53.520;10.104;2022-11-12T19:55:30;5.80;99.90
22271;DHT22;11304;53.520;10.104;2022-11-12T19:57:57;5.80;99.90
22271;DHT22;11304;53.520;10.104;2022-11-12T20:00:22;5.80;99.90
22271;DHT22;11304;53.520;10.104;2022-11-12T20:02:48;6.00;99.90
22271;DHT22;11304;53.520;10.104;2022-11-12T20:05:14;6.20;99.90
22271;DHT22;11304;53.520;10.104;2022-11-12T20:07:40;6.20;99.90
22271;DHT22;11304;53.520;10.104;2022-11-12T20:10:05;6.10;99.90
22271;DHT22;11304;53.520;10.104;2022-11-12T20:12:31;6.10;99.90
22271;DHT22;11304;53.520;10.104;2022-11-12T20:14:58;6.10;99.90
22271;DHT22;11304;53.520;10.104;2022-11-12T20:17:23;6.20;99.90
22271;DHT22;11304;53.520;10.104;2022-11-12T20:19:49;6.40;99.90
22271;DHT22;11304;53.520;10.104;2022-11-12T20:22:15;6.50;99.90
22271;DHT22;11304;53.520;10.104;2022-11-12T20:24:40;6.50;99.90
22271;DHT22;11304;53.520;10.104;2022-11-12T20:27:06;6.50;99.90
22271;DHT22;11304;53.520;10.104;2022-11-12T20:29:32;6.40;99.90
22271;DHT22;11304;53.520;10.104;2022-11-12T20:31:58;6.30;99.90
22271;DHT22;11304;53.520;10.104;2022-11-12T20:34:23;6.30;99.90
22271;DHT22;11304;53.520;10.104;2022-11-12T20:36:49;6.20;99.90
22271;DHT22;11304;53.520;10.104;2022-11-12T20:39:15;6.10;99.90
22271;DHT22;11304;53.520;10.104;2022-11-12T20:41:40;5.90;99.90
22271;DHT22;11304;53.520;10.104;2022-11-12T20:44:06;5.90;99.90
22271;DHT22;11304;53.520;10.104;2022-11-12T20:46:32;5.90;99.90
22271;DHT22;11304;53.520;10.104;2022-11-12T20:48:58;5.90;99.90
22271;DHT22;11304;53.520;10.104;2022-11-12T20:51:25;6.00;99.90
22271;DHT22;11304;53.520;10.104;2022-11-12T20:53:54;6.20;99.90
22271;DHT22;11304;53.520;10.104;2022-11-12T20:56:22;6.10;99.90
22271;DHT22;11304;53.520;10.104;2022-11-12T20:58:49;6.10;99.90
22271;DHT22;11304;53.520;10.104;2022-11-12T21:01:17;6.20;99.90
22271;DHT22;11304;53.520;10.104;2022-11-12T21:03:44;6.10;99.90
22271;DHT22;11304;53.520;10.104;2022-11-12T21:06:12;6.10;99.90
22271;DHT22;11304;53.520;10.104;2022-11-12T21:08:38;6.10;99.90
22271;DHT22;11304;53.520;10.104;2022-11-12T21:11:07;6.00;99.90
22271;DHT22;11304;53.520;10.104;2022-11-12T21:13:34;6.00;99.90
22271;DHT22;11304;53.520;10.104;2022-11-12T21:16:01;6.10;99.90
22271;DHT22;11304;53.520;10.104;2022-11-12T21:18:28;6.20;99.90
22271;DHT22;11304;53.520;10.104;2022-11-12T21:21:02;6.30;99.90
22271;DHT22;11304;53.520;10.104;2022-11-12T21:23:30;6.40;99.90
22271;DHT22;11304;53.520;10.104;2022-11-12T21:26:03;6.40;99.90
22271;DHT22;11304;53.520;10.104;2022-11-12T21:28:31;6.30;99.90
22271;DHT22;11304;53.520;10.104;2022-11-12T21:31:08;6.20;99.90
22271;DHT22;11304;53.520;10.104;2022-11-12T21:33:34;6.10;99.90
22271;DHT22;11304;53.520;10.104;2022-11-12T21:36:02;6.00;99.90
22271;DHT22;11304;53.520;10.104;2022-11-12T21:38:28;5.90;99.90
22271;DHT22;11304;53.520;10.104;2022-11-12T21:41:08;5.90;99.90
22271;DHT22;11304;53.520;10.104;2022-11-12T21:43:36;6.00;99.90
22271;DHT22;11304;53.520;10.104;2022-11-12T21:46:05;6.00;99.90
22271;DHT22;11304;53.520;10.104;2022-11-12T21:48:31;6.00;99.90
22271;DHT22;11304;53.520;10.104;2022-11-12T21:51:08;5.90;99.90
22271;DHT22;11304;53.520;10.104;2022-11-12T21:53:34;5.90;99.90
22271;DHT22;11304;53.520;10.104;2022-11-12T21:56:05;5.90;99.90
22271;DHT22;11304;53.520;10.104;2022-11-12T21:58:32;5.90;99.90
22271;DHT22;11304;53.520;10.104;2022-11-12T22:01:21;6.00;99.90
22271;DHT22;11304;53.520;10.104;2022-11-12T22:03:48;5.90;99.90
22271;DHT22;11304;53.520;10.104;2022-11-12T22:06:15;5.90;99.90
22271;DHT22;11304;53.520;10.104;2022-11-12T22:08:41;6.00;99.90
22271;DHT22;11304;53.520;10.104;2022-11-12T22:11:09;6.20;99.90
22271;DHT22;11304;53.520;10.104;2022-11-12T22:13:35;6.20;99.90
22271;DHT22;11304;53.520;10.104;2022-11-12T22:16:07;6.20;99.90
22271;DHT22;11304;53.520;10.104;2022-11-12T22:18:33;6.10;99.90
22271;DHT22;11304;53.520;10.104;2022-11-12T22:21:01;6.00;99.90
22271;DHT22;11304;53.520;10.104;2022-11-12T22:23:27;6.00;99.90
22271;DHT22;11304;53.520;10.104;2022-11-12T22:25:57;5.90;99.90
22271;DHT22;11304;53.520;10.104;2022-11-12T22:28:23;5.80;99.90
22271;DHT22;11304;53.520;10.104;2022-11-12T22:30:49;5.70;99.90
22271;DHT22;11304;53.520;10.104;2022-11-12T22:33:15;5.70;99.90
22271;DHT22;11304;53.520;10.104;2022-11-12T22:35:41;5.70;99.90
22271;DHT22;11304;53.520;10.104;2022-11-12T22:38:06;5.60;99.90
22271;DHT22;11304;53.520;10.104;2022-11-12T22:40:32;5.60;99.90
22271;DHT22;11304;53.520;10.104;2022-11-12T22:42:58;5.50;99.90
22271;DHT22;11304;53.520;10.104;2022-11-12T22:45:23;5.50;99.90
22271;DHT22;11304;53.520;10.104;2022-11-12T22:47:49;5.40;99.90
22271;DHT22;11304;53.520;10.104;2022-11-12T22:50:16;5.20;99.90
22271;DHT22;11304;53.520;10.104;2022-11-12T22:52:41;5.00;99.90
22271;DHT22;11304;53.520;10.104;2022-11-12T22:55:07;4.80;99.90
22271;DHT22;11304;53.520;10.104;2022-11-12T22:57:33;4.70;99.90
22271;DHT22;11304;53.520;10.104;2022-11-12T22:59:59;4.70;99.90
22271;DHT22;11304;53.520;10.104;2022-11-12T23:02:24;4.70;99.90
22271;DHT22;11304;53.520;10.104;2022-11-12T23:04:50;4.80;99.90
22271;DHT22;11304;53.520;10.104;2022-11-12T23:07:16;5.00;99.90
22271;DHT22;11304;53.520;10.104;2022-11-12T23:09:41;5.10;99.90
22271;DHT22;11304;53.520;10.104;2022-11-12T23:12:07;5.10;99.90
22271;DHT22;11304;53.520;10.104;2022-11-12T23:14:33;5.10;99.90
22271;DHT22;11304;53.520;10.104;2022-11-12T23:16:59;5.10;99.90
22271;DHT22;11304;53.520;10.104;2022-11-12T23:19:25;5.00;99.90
22271;DHT22;11304;53.520;10.104;2022-11-12T23:21:51;5.00;99.90
22271;DHT22;11304;53.520;10.104;2022-11-12T23:24:17;4.90;99.90
22271;DHT22;11304;53.520;10.104;2022-11-12T23:26:43;4.80;99.90
22271;DHT22;11304;53.520;10.104;2022-11-12T23:29:12;4.80;99.90
22271;DHT22;11304;53.520;10.104;2022-11-12T23:31:38;4.70;99.90
22271;DHT22;11304;53.520;10.104;2022-11-12T23:34:04;4.60;99.90
22271;DHT22;11304;53.520;10.104;2022-11-12T23:36:30;4.50;99.90
22271;DHT22;11304;53.520;10.104;2022-11-12T23:38:57;4.50;99.90
22271;DHT22;11304;53.520;10.104;2022-11-12T23:41:24;4.50;99.90
22271;DHT22;11304;53.520;10.104;2022-11-12T23:43:54;4.40;99.90
22271;DHT22;11304;53.520;10.104;2022-11-12T23:46:21;4.40;99.90
22271;DHT22;11304;53.520;10.104;2022-11-12T23:48:47;4.30;99.90
22271;DHT22;11304;53.520;10.104;2022-11-12T23:51:19;4.20;99.90
22271;DHT22;11304;53.520;10.104;2022-11-12T23:53:45;4.10;99.90
22271;DHT22;11304;53.520;10.104;2022-11-12T23:56:13;4.00;99.90
22271;DHT22;11304;53.520;10.104;2022-11-12T23:58:40;4.00;99.90
